createdAt,value
2018-11-05T00:02:09.283Z,5.70
2018-11-05T00:04:38.387Z,5.80
2018-11-05T00:07:06.875Z,5.80
2018-11-05T00:09:36.512Z,5.80
2018-11-05T00:12:05.679Z,5.70
2018-11-05T00:14:34.012Z,5.70
2018-11-05T00:17:02.531Z,5.70
2018-11-05T00:19:30.897Z,5.60
2018-11-05T00:21:59.252Z,5.60
2018-11-05T00:24:28.303Z,5.50
2018-11-05T00:26:57.630Z,5.60
2018-11-05T00:29:25.951Z,5.50
2018-11-05T00:31:55.045Z,5.50
2018-11-05T00:34:24.175Z,5.50
2018-11-05T00:36:53.096Z,5.50
2018-11-05T00:39:22.287Z,5.50
2018-11-05T00:41:51.146Z,5.50
2018-11-05T00:44:19.827Z,5.50
2018-11-05T00:46:48.669Z,5.50
2018-11-05T00:49:17.572Z,5.40
2018-11-05T00:51:46.466Z,5.50
2018-11-05T00:54:15.058Z,5.40
2018-11-05T00:56:43.688Z,5.40
2018-11-05T00:59:12.217Z,5.30
2018-11-05T01:01:40.850Z,5.30
2018-11-05T01:04:09.446Z,5.30
2018-11-05T01:06:37.957Z,5.30
2018-11-05T01:09:07.489Z,5.30
2018-11-05T01:11:36.255Z,5.30
2018-11-05T01:14:05.348Z,5.30
2018-11-05T01:16:34.490Z,5.30
2018-11-05T01:19:04.120Z,5.30
2018-11-05T01:21:32.969Z,5.30
2018-11-05T01:24:01.881Z,5.30
2018-11-05T01:26:30.771Z,5.30
2018-11-05T01:28:59.468Z,5.30
2018-11-05T01:31:28.642Z,5.30
2018-11-05T01:33:57.040Z,5.30
2018-11-05T01:36:26.030Z,5.30
2018-11-05T01:38:54.671Z,5.30
2018-11-05T01:41:22.870Z,5.30
2018-11-05T01:43:52.581Z,5.30
2018-11-05T01:46:22.075Z,5.20
2018-11-05T01:48:50.925Z,5.20
2018-11-05T01:51:20.282Z,5.10
2018-11-05T01:53:48.761Z,5.10
2018-11-05T01:56:17.360Z,5.10
2018-11-05T01:58:45.849Z,5.10
2018-11-05T02:01:14.429Z,5.10
2018-11-05T02:03:42.799Z,5.10
2018-11-05T02:06:11.075Z,5.00
2018-11-05T02:08:39.659Z,5.00
2018-11-05T02:11:07.844Z,5.00
2018-11-05T02:13:37.353Z,5.00
2018-11-05T02:16:05.643Z,4.90
2018-11-05T02:18:36.357Z,4.90
2018-11-05T02:21:06.121Z,4.80
2018-11-05T02:23:34.323Z,4.90
2018-11-05T02:26:02.518Z,4.80
2018-11-05T02:28:31.882Z,4.80
2018-11-05T02:31:00.641Z,4.80
2018-11-05T02:33:29.027Z,4.80
2018-11-05T02:35:57.484Z,4.80
2018-11-05T02:38:25.673Z,4.80
2018-11-05T02:40:53.995Z,4.80
2018-11-05T02:43:22.606Z,4.80
2018-11-05T02:45:51.041Z,4.80
2018-11-05T02:48:19.744Z,4.80
2018-11-05T02:50:48.183Z,4.90
2018-11-05T02:53:16.521Z,4.90
2018-11-05T02:55:44.763Z,5.00
2018-11-05T02:58:13.516Z,5.00
2018-11-05T03:00:43.002Z,5.00
2018-11-05T03:03:11.713Z,5.00
2018-11-05T03:05:41.276Z,4.90
2018-11-05T03:08:09.555Z,5.00
2018-11-05T03:10:38.886Z,5.00
2018-11-05T03:13:07.868Z,5.00
2018-11-05T03:15:37.238Z,5.00
2018-11-05T03:18:05.842Z,5.00
2018-11-05T03:20:34.427Z,5.00
2018-11-05T03:23:02.626Z,5.00
2018-11-05T03:25:31.269Z,5.00
2018-11-05T03:28:00.083Z,5.00
2018-11-05T03:30:29.674Z,4.90
2018-11-05T03:32:58.214Z,4.90
2018-11-05T03:35:27.661Z,4.90
2018-11-05T03:37:56.268Z,4.90
2018-11-05T03:40:25.217Z,4.90
2018-11-05T03:42:54.434Z,4.90
2018-11-05T03:45:22.689Z,4.90
2018-11-05T03:47:54.172Z,5.00
2018-11-05T03:50:22.527Z,5.00
2018-11-05T03:52:51.148Z,5.00
2018-11-05T03:55:20.204Z,5.00
2018-11-05T03:57:48.901Z,5.00
2018-11-05T04:00:18.146Z,4.90
2018-11-05T04:02:47.539Z,4.90
2018-11-05T04:05:18.388Z,4.90
2018-11-05T04:07:46.580Z,4.90
2018-11-05T04:10:15.151Z,4.90
2018-11-05T04:12:44.007Z,4.80
2018-11-05T04:15:12.614Z,4.80
2018-11-05T04:17:40.951Z,4.70
2018-11-05T04:20:11.018Z,4.70
2018-11-05T04:22:39.369Z,4.70
2018-11-05T04:25:08.682Z,4.70
2018-11-05T04:27:36.984Z,4.70
2018-11-05T04:30:08.600Z,4.70
2018-11-05T04:32:37.067Z,4.60
2018-11-05T04:35:05.412Z,4.60
2018-11-05T04:37:33.647Z,4.50
2018-11-05T04:40:01.875Z,4.40
2018-11-05T04:42:30.107Z,4.30
2018-11-05T04:44:58.813Z,4.20
2018-11-05T04:47:27.078Z,4.10
2018-11-05T04:49:55.604Z,4.10
2018-11-05T04:52:24.098Z,4.10
2018-11-05T04:54:52.282Z,4.20
2018-11-05T04:57:20.646Z,4.20
2018-11-05T04:59:49.230Z,4.10
2018-11-05T05:02:18.772Z,4.00
2018-11-05T05:04:48.443Z,3.90
2018-11-05T05:07:17.285Z,3.80
2018-11-05T05:09:45.900Z,3.80
2018-11-05T05:12:16.051Z,3.80
2018-11-05T05:14:45.224Z,3.70
2018-11-05T05:17:13.752Z,3.60
2018-11-05T05:19:42.500Z,3.50
2018-11-05T05:22:11.510Z,3.40
2018-11-05T05:24:40.696Z,3.30
2018-11-05T05:27:09.737Z,3.20
2018-11-05T05:29:38.329Z,3.20
2018-11-05T05:32:07.019Z,3.20
2018-11-05T05:34:35.386Z,3.20
2018-11-05T05:37:03.811Z,3.30
2018-11-05T05:39:32.333Z,3.50
2018-11-05T05:42:00.703Z,3.50
2018-11-05T05:44:29.085Z,3.50
2018-11-05T05:46:57.947Z,3.60
2018-11-05T05:49:26.755Z,3.60
2018-11-05T05:51:55.492Z,3.50
2018-11-05T05:54:24.123Z,3.60
2018-11-05T05:56:52.415Z,3.60
2018-11-05T05:59:20.767Z,3.60
2018-11-05T06:01:49.159Z,3.60
2018-11-05T06:04:17.676Z,3.60
2018-11-05T06:06:46.017Z,3.60
2018-11-05T06:09:14.900Z,3.70
2018-11-05T06:11:43.430Z,3.80
2018-11-05T06:14:11.822Z,3.90
2018-11-05T06:16:40.324Z,3.80
2018-11-05T06:19:08.677Z,3.80
2018-11-05T06:21:37.119Z,3.80
2018-11-05T06:24:05.551Z,3.80
2018-11-05T06:26:33.807Z,3.80
2018-11-05T06:29:02.574Z,3.90
2018-11-05T06:31:30.860Z,3.90
2018-11-05T06:33:59.104Z,3.90
2018-11-05T06:36:27.404Z,3.90
2018-11-05T06:38:55.604Z,4.00
2018-11-05T06:41:24.200Z,4.00
2018-11-05T06:43:52.175Z,4.00
2018-11-05T06:46:20.703Z,4.10
2018-11-05T06:48:49.427Z,4.10
2018-11-05T06:51:17.651Z,4.10
2018-11-05T06:53:46.183Z,4.10
2018-11-05T06:56:14.562Z,4.00
2018-11-05T06:58:43.019Z,4.00
2018-11-05T07:01:11.239Z,4.20
2018-11-05T07:03:39.532Z,4.20
2018-11-05T07:06:07.747Z,4.20
2018-11-05T07:08:35.918Z,4.20
2018-11-05T07:11:04.656Z,4.30
2018-11-05T07:13:33.160Z,4.40
2018-11-05T07:16:02.282Z,4.40
2018-11-05T07:18:32.015Z,4.50
2018-11-05T07:21:01.571Z,4.60
2018-11-05T07:23:29.795Z,4.70
2018-11-05T07:25:58.389Z,4.80
2018-11-05T07:28:27.334Z,4.90
2018-11-05T07:30:56.124Z,4.90
2018-11-05T07:33:25.224Z,5.00
2018-11-05T07:35:54.094Z,5.00
2018-11-05T07:38:22.904Z,5.10
2018-11-05T07:40:51.395Z,5.20
2018-11-05T07:43:20.332Z,5.30
2018-11-05T07:45:48.588Z,5.40
2018-11-05T07:48:17.276Z,5.60
2018-11-05T07:50:46.030Z,5.70
2018-11-05T07:53:14.215Z,5.90
2018-11-05T07:55:42.582Z,6.00
2018-11-05T07:58:10.794Z,6.10
2018-11-05T08:00:44.356Z,6.20
2018-11-05T08:03:12.543Z,6.40
2018-11-05T08:05:41.378Z,6.50
2018-11-05T08:08:10.029Z,6.70
2018-11-05T08:10:38.483Z,6.80
2018-11-05T08:13:06.719Z,6.90
2018-11-05T08:15:34.966Z,6.90
2018-11-05T08:18:03.320Z,7.00
2018-11-05T08:20:31.634Z,7.10
2018-11-05T08:22:59.863Z,7.30
2018-11-05T08:25:28.109Z,7.40
2018-11-05T08:27:56.432Z,7.60
2018-11-05T08:30:25.709Z,7.70
2018-11-05T08:32:54.592Z,7.80
2018-11-05T08:35:23.117Z,7.90
2018-11-05T08:37:51.743Z,8.00
2018-11-05T08:40:21.948Z,8.00
2018-11-05T08:42:51.356Z,8.20
2018-11-05T08:45:20.802Z,8.20
2018-11-05T08:47:49.243Z,8.20
2018-11-05T08:50:18.741Z,8.20
2018-11-05T08:52:47.280Z,8.40
2018-11-05T08:55:16.951Z,8.60
2018-11-05T08:57:45.233Z,8.80
2018-11-05T09:00:16.404Z,8.90
2018-11-05T09:02:45.752Z,9.00
2018-11-05T09:05:14.264Z,9.00
2018-11-05T09:07:43.138Z,9.10
2018-11-05T09:10:11.535Z,9.30
2018-11-05T09:12:39.780Z,9.30
2018-11-05T09:15:10.020Z,9.30
2018-11-05T09:17:38.592Z,9.40
2018-11-05T09:20:09.001Z,9.50
2018-11-05T09:22:37.968Z,9.50
2018-11-05T09:25:07.399Z,9.70
2018-11-05T09:27:35.937Z,9.80
2018-11-05T09:30:06.064Z,9.90
2018-11-05T09:32:34.806Z,10.00
2018-11-05T09:35:03.194Z,10.00
2018-11-05T09:37:31.438Z,9.90
2018-11-05T09:39:59.807Z,10.00
2018-11-05T09:42:28.203Z,10.00
2018-11-05T09:44:56.399Z,10.30
2018-11-05T09:47:24.631Z,10.20
2018-11-05T09:49:52.879Z,10.40
2018-11-05T09:52:21.239Z,10.60
2018-11-05T09:54:49.507Z,10.90
2018-11-05T09:57:17.816Z,11.00
2018-11-05T09:59:46.122Z,11.10
2018-11-05T10:02:14.425Z,11.30
2018-11-05T10:04:43.410Z,11.40
2018-11-05T10:07:11.510Z,11.50
2018-11-05T10:09:39.881Z,11.70
2018-11-05T10:12:08.116Z,11.70
2018-11-05T10:14:36.330Z,11.90
2018-11-05T10:17:04.615Z,12.10
2018-11-05T10:19:32.794Z,12.10
2018-11-05T10:22:01.159Z,12.30
2018-11-05T10:24:29.474Z,12.40
2018-11-05T10:26:57.749Z,12.50
2018-11-05T10:29:26.036Z,12.70
2018-11-05T10:31:54.338Z,12.80
2018-11-05T10:34:22.655Z,13.10
2018-11-05T10:36:51.104Z,13.30
2018-11-05T10:39:19.448Z,13.10
2018-11-05T10:41:47.850Z,13.10
2018-11-05T10:44:16.122Z,13.20
2018-11-05T10:46:45.057Z,13.10
2018-11-05T10:49:13.354Z,13.10
2018-11-05T10:51:41.886Z,13.10
2018-11-05T10:54:09.992Z,13.10
2018-11-05T10:56:38.631Z,12.90
2018-11-05T10:59:06.840Z,12.80
2018-11-05T11:01:40.543Z,13.00
2018-11-05T11:04:14.222Z,12.90
2018-11-05T11:06:42.491Z,13.00
2018-11-05T11:09:10.797Z,13.00
2018-11-05T11:11:39.033Z,13.10
2018-11-05T11:14:07.312Z,13.00
2018-11-05T11:16:35.714Z,13.10
2018-11-05T11:19:04.188Z,13.10
2018-11-05T11:21:32.867Z,13.00
2018-11-05T11:24:01.048Z,13.10
2018-11-05T11:26:29.434Z,13.10
2018-11-05T11:28:57.822Z,13.10
2018-11-05T11:31:25.944Z,13.10
2018-11-05T11:33:54.446Z,13.00
2018-11-05T11:36:22.860Z,12.90
2018-11-05T11:38:51.122Z,13.10
2018-11-05T11:41:19.326Z,13.10
2018-11-05T11:43:47.677Z,13.10
2018-11-05T11:46:16.062Z,13.10
2018-11-05T11:48:44.485Z,13.20
2018-11-05T11:51:12.919Z,13.20
2018-11-05T11:53:41.182Z,13.30
2018-11-05T11:56:09.469Z,13.40
2018-11-05T11:58:37.764Z,13.40
2018-11-05T12:01:06.547Z,13.30
2018-11-05T12:03:35.059Z,13.30
2018-11-05T12:06:03.275Z,13.60
2018-11-05T12:08:31.599Z,13.70
2018-11-05T12:10:59.923Z,13.80
2018-11-05T12:13:28.302Z,13.90
2018-11-05T12:15:57.610Z,14.00
2018-11-05T12:18:25.796Z,14.10
2018-11-05T12:20:54.219Z,14.10
2018-11-05T12:23:22.667Z,14.10
2018-11-05T12:25:51.150Z,14.00
2018-11-05T12:28:19.457Z,13.90
2018-11-05T12:30:47.666Z,14.00
2018-11-05T12:33:15.963Z,14.00
2018-11-05T12:35:44.146Z,14.10
2018-11-05T12:38:12.696Z,14.00
2018-11-05T12:40:41.148Z,14.00
2018-11-05T12:43:09.894Z,14.00
2018-11-05T12:45:38.176Z,13.90
2018-11-05T12:48:06.473Z,13.80
2018-11-05T12:50:34.787Z,13.80
2018-11-05T12:53:03.131Z,13.70
2018-11-05T12:55:31.437Z,13.70
2018-11-05T12:57:59.767Z,13.70
2018-11-05T13:00:28.055Z,13.60
2018-11-05T13:02:57.803Z,13.60
2018-11-05T13:05:27.954Z,13.60
2018-11-05T13:07:56.879Z,13.70
2018-11-05T13:10:25.339Z,13.60
2018-11-05T13:12:53.902Z,13.60
2018-11-05T13:15:22.261Z,13.50
2018-11-05T13:17:50.601Z,13.60
2018-11-05T13:20:20.336Z,13.70
2018-11-05T13:22:48.690Z,13.90
2018-11-05T13:25:16.931Z,14.00
2018-11-05T13:27:46.599Z,14.20
2018-11-05T13:30:15.286Z,14.20
2018-11-05T13:32:43.988Z,14.10
2018-11-05T13:35:16.001Z,14.00
2018-11-05T13:37:44.612Z,14.10
2018-11-05T13:40:14.272Z,14.10
2018-11-05T13:42:42.631Z,14.20
2018-11-05T13:45:11.939Z,14.30
2018-11-05T13:47:41.002Z,14.30
2018-11-05T13:50:09.337Z,14.50
2018-11-05T13:52:37.947Z,14.60
2018-11-05T13:55:07.256Z,14.80
2018-11-05T13:57:35.354Z,14.90
2018-11-05T14:00:03.842Z,14.90
2018-11-05T14:02:32.059Z,15.00
2018-11-05T14:05:00.472Z,15.10
2018-11-05T14:07:28.863Z,15.10
2018-11-05T14:09:57.051Z,15.20
2018-11-05T14:12:25.679Z,15.30
2018-11-05T14:14:53.846Z,15.20
2018-11-05T14:17:22.118Z,15.20
2018-11-05T14:19:50.506Z,15.20
2018-11-05T14:22:18.859Z,15.20
2018-11-05T14:24:47.244Z,15.10
2018-11-05T14:27:15.687Z,14.90
2018-11-05T14:29:44.564Z,14.90
2018-11-05T14:32:12.509Z,14.80
2018-11-05T14:34:40.862Z,14.70
2018-11-05T14:37:09.137Z,14.70
2018-11-05T14:39:37.688Z,14.70
2018-11-05T14:42:06.047Z,14.60
2018-11-05T14:44:34.711Z,14.60
2018-11-05T14:47:03.283Z,14.50
2018-11-05T14:49:32.516Z,14.50
2018-11-05T14:52:00.725Z,14.50
2018-11-05T14:54:29.163Z,14.50
2018-11-05T14:56:57.632Z,14.50
2018-11-05T14:59:26.056Z,14.50
2018-11-05T15:01:59.576Z,14.40
2018-11-05T15:04:27.811Z,14.40
2018-11-05T15:06:56.106Z,14.30
2018-11-05T15:09:24.359Z,14.30
2018-11-05T15:11:52.669Z,14.30
2018-11-05T15:14:21.329Z,14.20
2018-11-05T15:16:50.033Z,14.00
2018-11-05T15:19:18.671Z,14.00
2018-11-05T15:21:46.603Z,14.00
2018-11-05T15:24:14.895Z,13.90
2018-11-05T15:26:43.214Z,13.90
2018-11-05T15:29:11.633Z,13.90
2018-11-05T15:31:40.088Z,13.80
2018-11-05T15:34:08.434Z,13.70
2018-11-05T15:36:36.758Z,13.60
2018-11-05T15:39:06.983Z,13.50
2018-11-05T15:41:35.892Z,13.40
2018-11-05T15:44:04.365Z,13.20
2018-11-05T15:46:32.599Z,13.10
2018-11-05T15:49:00.876Z,12.90
2018-11-05T15:51:29.357Z,12.70
2018-11-05T15:53:57.981Z,12.50
2018-11-05T15:56:26.251Z,12.30
2018-11-05T15:58:54.600Z,12.10
2018-11-05T16:01:23.004Z,11.90
2018-11-05T16:03:51.366Z,11.70
2018-11-05T16:06:19.613Z,11.50
2018-11-05T16:08:47.987Z,11.30
2018-11-05T16:11:16.527Z,11.20
2018-11-05T16:13:44.891Z,11.00
2018-11-05T16:16:13.482Z,10.90
2018-11-05T16:18:42.226Z,10.80
2018-11-05T16:21:10.580Z,10.60
2018-11-05T16:23:39.048Z,10.50
2018-11-05T16:26:07.690Z,10.40
2018-11-05T16:28:36.493Z,10.30
2018-11-05T16:31:05.385Z,10.20
2018-11-05T16:33:33.704Z,10.10
2018-11-05T16:36:02.707Z,10.00
2018-11-05T16:38:31.467Z,9.90
2018-11-05T16:40:59.651Z,9.80
2018-11-05T16:43:28.304Z,9.60
2018-11-05T16:45:57.750Z,9.50
2018-11-05T16:48:26.163Z,9.40
2018-11-05T16:50:54.752Z,9.30
2018-11-05T16:53:22.956Z,9.20
2018-11-05T16:55:51.511Z,9.10
2018-11-05T16:58:19.999Z,9.00
2018-11-05T17:00:48.970Z,8.90
2018-11-05T17:03:17.218Z,8.80
2018-11-05T17:05:47.615Z,8.70
2018-11-05T17:08:16.183Z,8.70
2018-11-05T17:10:44.806Z,8.70
2018-11-05T17:13:13.226Z,8.60
2018-11-05T17:15:42.034Z,8.60
2018-11-05T17:18:10.979Z,8.50
2018-11-05T17:20:39.240Z,8.50
2018-11-05T17:23:07.805Z,8.50
2018-11-05T17:25:36.342Z,8.40
2018-11-05T17:28:04.863Z,8.40
2018-11-05T17:30:33.488Z,8.20
2018-11-05T17:33:02.393Z,8.10
2018-11-05T17:35:30.694Z,8.00
2018-11-05T17:37:59.544Z,8.00
2018-11-05T17:40:28.916Z,8.00
2018-11-05T17:42:57.440Z,7.90
2018-11-05T17:45:26.465Z,7.90
2018-11-05T17:47:55.762Z,7.90
2018-11-05T17:50:24.714Z,7.90
2018-11-05T17:52:53.490Z,7.80
2018-11-05T17:55:23.223Z,7.70
2018-11-05T17:57:52.503Z,7.70
2018-11-05T18:00:22.086Z,7.60
2018-11-05T18:02:50.994Z,7.60
2018-11-05T18:05:19.906Z,7.50
2018-11-05T18:07:48.523Z,7.40
2018-11-05T18:10:16.853Z,7.40
2018-11-05T18:12:45.169Z,7.40
2018-11-05T18:15:13.835Z,7.40
2018-11-05T18:17:42.984Z,7.30
2018-11-05T18:20:12.803Z,7.30
2018-11-05T18:22:41.427Z,7.20
2018-11-05T18:25:11.907Z,7.10
2018-11-05T18:27:40.751Z,7.00
2018-11-05T18:30:09.795Z,7.00
2018-11-05T18:32:38.439Z,7.00
2018-11-05T18:35:08.531Z,7.00
2018-11-05T18:37:37.227Z,7.00
2018-11-05T18:40:07.930Z,7.00
2018-11-05T18:42:37.547Z,7.00
2018-11-05T18:45:08.127Z,7.00
2018-11-05T18:47:37.115Z,7.00
2018-11-05T18:50:08.718Z,7.00
2018-11-05T18:52:37.239Z,6.90
2018-11-05T18:55:08.285Z,6.80
2018-11-05T18:57:36.754Z,6.80
2018-11-05T19:00:10.411Z,6.70
2018-11-05T19:02:39.332Z,6.70
2018-11-05T19:05:07.595Z,6.60
2018-11-05T19:07:35.834Z,6.50
2018-11-05T19:10:04.799Z,6.30
2018-11-05T19:12:33.556Z,6.20
2018-11-05T19:15:02.242Z,6.10
2018-11-05T19:17:30.425Z,6.10
2018-11-05T19:19:59.283Z,6.10
2018-11-05T19:22:27.960Z,6.10
2018-11-05T19:24:56.490Z,6.20
2018-11-05T19:27:25.861Z,6.40
2018-11-05T19:29:57.336Z,6.50
2018-11-05T19:32:25.628Z,6.50
2018-11-05T19:34:53.911Z,6.50
2018-11-05T19:37:22.136Z,6.40
2018-11-05T19:39:51.011Z,6.30
2018-11-05T19:42:19.506Z,6.30
2018-11-05T19:44:48.691Z,6.20
2018-11-05T19:47:16.996Z,6.20
2018-11-05T19:49:45.678Z,6.10
2018-11-05T19:52:14.480Z,6.10
2018-11-05T19:54:42.831Z,6.10
2018-11-05T19:57:11.683Z,6.10
2018-11-05T19:59:40.886Z,6.00
2018-11-05T20:02:09.118Z,5.90
2018-11-05T20:04:38.482Z,5.90
2018-11-05T20:07:08.044Z,5.90
2018-11-05T20:09:36.569Z,6.00
2018-11-05T20:12:04.933Z,6.10
2018-11-05T20:14:33.222Z,6.00
2018-11-05T20:17:02.220Z,5.80
2018-11-05T20:19:30.972Z,5.60
2018-11-05T20:21:59.790Z,5.40
2018-11-05T20:24:28.107Z,5.40
2018-11-05T20:26:57.076Z,5.30
2018-11-05T20:29:26.263Z,5.20
2018-11-05T20:31:54.604Z,5.20
2018-11-05T20:34:23.180Z,5.20
2018-11-05T20:36:51.372Z,5.30
2018-11-05T20:39:19.602Z,5.50
2018-11-05T20:41:48.144Z,5.40
2018-11-05T20:44:16.705Z,5.50
2018-11-05T20:46:45.214Z,5.40
2018-11-05T20:49:13.537Z,5.40
2018-11-05T20:51:42.885Z,5.20
2018-11-05T20:54:11.216Z,5.10
2018-11-05T20:56:39.952Z,4.90
2018-11-05T20:59:08.615Z,4.90
2018-11-05T21:01:37.538Z,4.90
2018-11-05T21:04:05.763Z,5.00
2018-11-05T21:06:34.036Z,5.00
2018-11-05T21:09:02.882Z,5.10
2018-11-05T21:11:33.581Z,5.10
2018-11-05T21:14:02.316Z,5.10
2018-11-05T21:16:30.845Z,5.00
2018-11-05T21:18:59.330Z,4.90
2018-11-05T21:21:28.059Z,4.90
2018-11-05T21:23:56.217Z,4.90
2018-11-05T21:26:24.547Z,4.90
2018-11-05T21:28:54.028Z,4.80
2018-11-05T21:31:22.660Z,4.80
2018-11-05T21:33:50.888Z,4.80
2018-11-05T21:36:20.286Z,4.80
2018-11-05T21:38:48.587Z,4.70
2018-11-05T21:41:17.591Z,4.70
2018-11-05T21:43:45.847Z,4.80
2018-11-05T21:46:14.102Z,4.80
2018-11-05T21:48:42.428Z,4.80
2018-11-05T21:51:10.643Z,4.80
2018-11-05T21:53:38.968Z,4.90
2018-11-05T21:56:07.815Z,4.90
2018-11-05T21:58:36.517Z,4.90
2018-11-05T22:01:06.484Z,4.90
2018-11-05T22:03:35.088Z,4.90
2018-11-05T22:06:03.915Z,5.00
2018-11-05T22:08:32.186Z,5.00
2018-11-05T22:11:01.120Z,5.10
2018-11-05T22:13:30.875Z,5.10
2018-11-05T22:15:59.105Z,5.20
2018-11-05T22:18:27.630Z,5.20
2018-11-05T22:20:56.720Z,5.10
2018-11-05T22:23:25.261Z,5.00
2018-11-05T22:25:53.856Z,4.80
2018-11-05T22:28:22.314Z,4.50
2018-11-05T22:30:50.864Z,4.30
2018-11-05T22:33:19.611Z,4.30
2018-11-05T22:35:48.138Z,4.10
2018-11-05T22:38:16.448Z,4.10
2018-11-05T22:40:45.007Z,4.20
2018-11-05T22:43:13.638Z,4.20
2018-11-05T22:45:43.066Z,4.30
2018-11-05T22:48:12.663Z,4.30
2018-11-05T22:50:41.704Z,4.40
2018-11-05T22:53:10.557Z,4.50
2018-11-05T22:55:39.569Z,4.60
2018-11-05T22:58:08.322Z,4.70
2018-11-05T23:00:42.077Z,4.80
2018-11-05T23:03:16.013Z,4.90
2018-11-05T23:05:45.000Z,4.90
2018-11-05T23:08:13.819Z,4.80
2018-11-05T23:10:42.833Z,4.70
2018-11-05T23:13:11.484Z,4.50
2018-11-05T23:15:40.450Z,4.30
2018-11-05T23:18:09.177Z,4.20
2018-11-05T23:20:38.235Z,4.10
2018-11-05T23:23:07.065Z,4.10
2018-11-05T23:25:35.784Z,4.10
2018-11-05T23:28:04.847Z,4.10
2018-11-05T23:30:33.581Z,4.10
2018-11-05T23:33:02.285Z,4.10
2018-11-05T23:35:31.278Z,4.00
2018-11-05T23:38:00.839Z,4.10
2018-11-05T23:40:30.268Z,4.20
2018-11-05T23:42:59.166Z,4.20
2018-11-05T23:45:27.970Z,4.20
2018-11-05T23:47:57.182Z,4.20
2018-11-05T23:50:25.495Z,4.20
2018-11-05T23:52:54.037Z,4.30
2018-11-05T23:55:22.301Z,4.10
2018-11-05T23:57:51.467Z,4.00
